Time;durP1;ratioP1;P1;durP2;ratioP2;P2;SDS_P1;SDS_P2;PMS_P1;PMS_P2;Temp;Humidity;BMP_temperature;BMP_pressure;BME280_temperature;BME280_humidity;BME280_pressure;Samples;Min_cycle;Max_cycle;Signal;HPM_P1;HPM_P2
2023/03/20 00:00:09;;;;;;;4.35;1.77;;;10.40;99.90;;;;;;4973860;28;20566;-75
2023/03/20 00:02:37;;;;;;;2.97;1.90;;;10.50;99.90;;;;;;4974496;28;20035;-76
2023/03/20 00:05:14;;;;;;;2.85;1.58;;;10.40;99.90;;;;;;4965755;28;20091;-76
2023/03/20 00:07:41;;;;;;;2.42;1.70;;;10.50;99.90;;;;;;4975386;28;20019;-78
2023/03/20 00:10:07;;;;;;;3.13;1.80;;;10.50;99.90;;;;;;4965847;28;20023;-78
2023/03/20 00:12:33;;;;;;;2.30;1.45;;;10.50;99.90;;;;;;4971730;28;20122;-77
2023/03/20 00:15:02;;;;;;;3.50;1.50;;;10.40;99.90;;;;;;4957846;29;20290;-78
2023/03/20 00:17:27;;;;;;;2.97;1.40;;;10.40;99.90;;;;;;4957902;29;20031;-78
2023/03/20 00:19:53;;;;;;;2.22;1.15;;;10.40;99.90;;;;;;4969571;28;20043;-77
2023/03/20 00:22:19;;;;;;;2.63;1.40;;;10.30;99.90;;;;;;4977554;28;20104;-76
2023/03/20 00:24:44;;;;;;;1.92;1.02;;;10.30;99.90;;;;;;4964491;28;20054;-76
2023/03/20 00:27:15;;;;;;;1.98;1.02;;;10.30;99.90;;;;;;4965623;28;20031;-77
2023/03/20 00:29:41;;;;;;;2.72;0.95;;;10.30;99.90;;;;;;4972849;28;20031;-76
2023/03/20 00:32:14;;;;;;;1.33;0.75;;;10.40;99.90;;;;;;4970716;28;20121;-76
2023/03/20 00:34:40;;;;;;;1.23;0.80;;;10.40;99.90;;;;;;4973416;28;20034;-76
2023/03/20 00:37:06;;;;;;;2.20;0.90;;;10.40;99.90;;;;;;4968693;28;20499;-76
2023/03/20 00:39:32;;;;;;;3.08;1.20;;;10.40;99.90;;;;;;4972458;28;20035;-76
2023/03/20 00:42:05;;;;;;;1.92;0.82;;;10.40;99.90;;;;;;4972855;28;20026;-76
2023/03/20 00:44:42;;;;;;;2.13;0.90;;;10.40;99.90;;;;;;4959730;28;20026;-75
2023/03/20 00:47:21;;;;;;;3.22;1.00;;;10.40;99.90;;;;;;4967493;28;20030;-76
2023/03/20 00:49:49;;;;;;;1.13;0.75;;;10.40;99.90;;;;;;4973303;28;20023;-76
2023/03/20 00:52:17;;;;;;;2.17;0.90;;;10.40;99.90;;;;;;4967983;28;20030;-75
2023/03/20 00:54:42;;;;;;;2.03;1.02;;;10.40;99.90;;;;;;4974522;28;20491;-76
2023/03/20 00:57:29;;;;;;;2.58;0.90;;;10.40;99.90;;;;;;4974377;28;20027;-78
2023/03/20 01:00:20;;;;;;;3.10;1.05;;;10.40;99.90;;;;;;4974936;28;20058;-76
2023/03/20 01:02:46;;;;;;;0.68;0.63;;;10.40;99.90;;;;;;4986609;28;20035;-77
2023/03/20 01:05:12;;;;;;;2.95;0.82;;;10.40;99.90;;;;;;4975188;28;20042;-77
2023/03/20 01:07:38;;;;;;;1.08;0.70;;;10.40;99.90;;;;;;4973585;28;20114;-76
2023/03/20 01:10:05;;;;;;;0.98;0.60;;;10.40;99.90;;;;;;4966580;28;20456;-76
2023/03/20 01:12:31;;;;;;;0.90;0.60;;;10.40;99.90;;;;;;4970297;28;20035;-76
2023/03/20 01:14:57;;;;;;;0.93;0.75;;;10.40;99.90;;;;;;4969843;28;20114;-76
2023/03/20 01:17:24;;;;;;;1.15;0.60;;;10.40;99.90;;;;;;4970958;28;20030;-76
2023/03/20 01:19:50;;;;;;;1.17;0.57;;;10.40;99.90;;;;;;4975815;28;20041;-77
2023/03/20 01:22:19;;;;;;;1.60;0.70;;;10.30;99.90;;;;;;4968499;28;20361;-77
2023/03/20 01:24:46;;;;;;;1.63;0.70;;;10.30;99.90;;;;;;4967435;28;20607;-77
2023/03/20 01:27:17;;;;;;;3.75;1.00;;;10.30;99.90;;;;;;4971648;28;20042;-76
2023/03/20 01:29:43;;;;;;;2.00;0.88;;;10.20;99.90;;;;;;4970427;28;20046;-75
2023/03/20 01:32:14;;;;;;;1.00;0.57;;;10.20;99.90;;;;;;4966703;28;20499;-77
2023/03/20 01:34:40;;;;;;;1.58;0.60;;;10.20;99.90;;;;;;4969400;28;20260;-77
2023/03/20 01:37:12;;;;;;;1.00;0.55;;;10.20;99.90;;;;;;4967930;28;20021;-77
2023/03/20 01:39:38;;;;;;;1.23;0.63;;;10.10;99.90;;;;;;4971058;28;20466;-77
2023/03/20 01:42:06;;;;;;;2.35;1.45;;;10.10;99.90;;;;;;4973208;28;20114;-77
2023/03/20 01:44:33;;;;;;;1.77;0.80;;;10.10;99.90;;;;;;4969181;28;20031;-75
2023/03/20 01:47:00;;;;;;;0.88;0.52;;;10.10;99.90;;;;;;4964026;28;20395;-76
2023/03/20 01:49:27;;;;;;;1.00;0.80;;;10.10;99.90;;;;;;4967646;28;20519;-76
2023/03/20 01:52:12;;;;;;;1.13;0.80;;;10.10;99.90;;;;;;4967573;28;20471;-77
2023/03/20 01:54:38;;;;;;;5.70;0.63;;;10.00;99.90;;;;;;4966975;28;20035;-78
2023/03/20 01:57:13;;;;;;;1.10;0.60;;;10.00;99.90;;;;;;4966644;28;20050;-78
2023/03/20 02:00:03;;;;;;;1.60;0.70;;;10.00;99.90;;;;;;4968432;28;20019;-76
2023/03/20 02:02:30;;;;;;;0.98;0.52;;;10.10;99.90;;;;;;4972584;28;20023;-76
2023/03/20 02:05:10;;;;;;;2.03;0.63;;;10.00;99.90;;;;;;4967291;28;20073;-76
2023/03/20 02:07:37;;;;;;;1.33;0.52;;;10.00;99.90;;;;;;4970374;28;20117;-77
2023/03/20 02:10:10;;;;;;;1.60;0.70;;;10.00;99.90;;;;;;4969879;28;20102;-77
2023/03/20 02:12:37;;;;;;;1.10;0.60;;;10.00;99.90;;;;;;4972436;28;20031;-77
2023/03/20 02:15:04;;;;;;;1.40;0.63;;;10.00;99.90;;;;;;4970530;28;20381;-77
2023/03/20 02:17:31;;;;;;;1.02;0.60;;;10.00;99.90;;;;;;4972005;28;20034;-75
2023/03/20 02:20:22;;;;;;;0.98;0.60;;;10.00;99.90;;;;;;4988435;28;20086;-77
2023/03/20 02:23:14;;;;;;;3.20;0.57;;;10.00;99.90;;;;;;4965077;28;20114;-76
2023/03/20 02:26:01;;;;;;;1.15;0.70;;;10.00;99.90;;;;;;4959728;28;20420;-77
2023/03/20 02:28:51;;;;;;;1.08;0.77;;;10.00;99.90;;;;;;4970555;28;20019;-76
2023/03/20 02:31:19;;;;;;;2.22;0.70;;;10.00;99.90;;;;;;4961996;28;20019;-76
2023/03/20 02:34:10;;;;;;;2.20;0.85;;;9.90;99.90;;;;;;4972655;28;20019;-76
2023/03/20 02:37:17;;;;;;;3.53;0.82;;;9.90;99.90;;;;;;4966499;28;20082;-78
2023/03/20 02:40:09;;;;;;;0.98;0.63;;;9.90;99.90;;;;;;4967058;28;20579;-77
2023/03/20 02:42:38;;;;;;;1.38;0.60;;;9.90;99.90;;;;;;4973811;28;20092;-77
2023/03/20 02:45:32;;;;;;;1.83;0.73;;;9.90;99.90;;;;;;4970106;28;20023;-78
2023/03/20 02:48:03;;;;;;;0.63;0.50;;;9.90;99.90;;;;;;4964935;28;20042;-77
2023/03/20 02:50:39;;;;;;;1.08;0.55;;;9.90;99.90;;;;;;4978945;28;20027;-78
2023/03/20 02:53:18;;;;;;;0.88;0.63;;;9.90;99.90;;;;;;4977164;28;20085;-78
2023/03/20 02:55:50;;;;;;;0.63;0.50;;;9.90;99.90;;;;;;4978603;28;20029;-77
2023/03/20 02:58:25;;;;;;;1.05;0.55;;;9.90;99.90;;;;;;4977022;28;20073;-77
2023/03/20 03:01:14;;;;;;;0.60;0.40;;;9.90;99.90;;;;;;4977024;28;20019;-78
2023/03/20 03:03:55;;;;;;;0.80;0.65;;;9.90;99.90;;;;;;4976705;28;20034;-76
2023/03/20 03:06:30;;;;;;;1.13;0.70;;;9.90;99.90;;;;;;4978060;28;20372;-77
2023/03/20 03:09:04;;;;;;;2.13;0.70;;;9.90;99.90;;;;;;4975076;28;20439;-76
2023/03/20 03:11:34;;;;;;;3.95;1.25;;;9.90;99.90;;;;;;4974650;28;20508;-77
2023/03/20 03:14:02;;;;;;;2.50;1.02;;;9.90;99.90;;;;;;4976360;28;20059;-76
2023/03/20 03:16:34;;;;;;;2.72;1.08;;;9.90;99.90;;;;;;4976022;28;20109;-77
2023/03/20 03:19:08;;;;;;;1.90;1.27;;;9.90;99.90;;;;;;4975807;28;20019;-77
2023/03/20 03:21:37;;;;;;;2.28;1.08;;;9.90;99.90;;;;;;4977281;28;20509;-77
2023/03/20 03:24:04;;;;;;;1.75;1.00;;;9.80;99.90;;;;;;4977681;28;20565;-77
2023/03/20 03:26:38;;;;;;;3.80;0.90;;;9.80;99.90;;;;;;4970358;28;20027;-78
2023/03/20 03:29:15;;;;;;;4.13;0.90;;;9.70;99.90;;;;;;4958429;28;20035;-78
2023/03/20 03:31:43;;;;;;;2.78;1.08;;;9.70;99.90;;;;;;4958638;28;20031;-76
2023/03/20 03:34:14;;;;;;;2.28;0.93;;;9.70;99.90;;;;;;4969409;28;20055;-78
2023/03/20 03:36:48;;;;;;;3.30;1.10;;;9.70;99.90;;;;;;4976691;28;20054;-77
2023/03/20 03:39:21;;;;;;;1.75;1.00;;;9.70;99.90;;;;;;4975710;28;20023;-77
2023/03/20 03:42:06;;;;;;;1.55;0.82;;;9.70;99.90;;;;;;4977651;28;20074;-79
2023/03/20 03:44:58;;;;;;;1.00;0.50;;;9.70;99.90;;;;;;4976495;28;20515;-79
2023/03/20 03:47:55;;;;;;;1.33;0.80;;;9.70;99.90;;;;;;4975242;28;20069;-79
2023/03/20 03:50:30;;;;;;;0.80;0.43;;;9.70;99.90;;;;;;4977617;28;20041;-79
2023/03/20 03:53:00;;;;;;;0.90;0.50;;;9.80;99.90;;;;;;4977930;28;20035;-79
2023/03/20 03:55:34;;;;;;;2.17;0.50;;;9.80;99.90;;;;;;4977580;28;20373;-80
2023/03/20 03:58:05;;;;;;;;;;;9.80;99.90;;;;;;4977925;28;20037;-80
2023/03/20 04:00:32;;;;;;;0.60;0.40;;;9.80;99.90;;;;;;4977586;28;20294;-79
2023/03/20 04:02:58;;;;;;;1.52;0.77;;;9.80;99.90;;;;;;4977513;28;20388;-79
2023/03/20 04:05:30;;;;;;;1.30;0.73;;;9.80;99.90;;;;;;4977963;28;20095;-79
2023/03/20 04:07:58;;;;;;;0.82;0.50;;;9.80;99.90;;;;;;4977434;28;20365;-78
2023/03/20 04:10:24;;;;;;;1.63;0.50;;;9.80;99.90;;;;;;4975358;28;20391;-78
2023/03/20 04:12:50;;;;;;;1.10;0.88;;;9.80;99.90;;;;;;4966740;28;20027;-78
2023/03/20 04:15:16;;;;;;;2.25;0.73;;;9.80;99.90;;;;;;4976833;28;20019;-78
2023/03/20 04:17:42;;;;;;;3.20;0.52;;;9.80;99.90;;;;;;4975330;28;20055;-78
2023/03/20 04:20:10;;;;;;;1.48;0.85;;;9.80;99.90;;;;;;4956096;28;20024;-78
2023/03/20 04:22:35;;;;;;;1.55;0.50;;;9.80;99.90;;;;;;4955486;28;20437;-77
2023/03/20 04:25:02;;;;;;;2.85;0.90;;;9.70;99.90;;;;;;4953101;28;20038;-76
2023/03/20 04:27:28;;;;;;;1.70;0.70;;;9.70;99.90;;;;;;4972388;28;20042;-78
2023/03/20 04:29:54;;;;;;;2.70;0.70;;;9.70;99.90;;;;;;4972225;28;20025;-77
2023/03/20 04:32:20;;;;;;;3.85;0.70;;;9.70;99.90;;;;;;4972816;28;20027;-78
2023/03/20 04:34:45;;;;;;;1.60;0.68;;;9.70;99.90;;;;;;4971126;28;20093;-76
2023/03/20 04:37:11;;;;;;;1.10;0.70;;;9.70;99.90;;;;;;4973535;28;20030;-77
2023/03/20 04:39:37;;;;;;;4.60;1.05;;;9.70;99.90;;;;;;4974122;28;20185;-77
2023/03/20 04:42:04;;;;;;;9.18;0.60;;;9.70;99.90;;;;;;4974559;28;20129;-77
2023/03/20 04:44:30;;;;;;;1.42;0.77;;;9.70;99.90;;;;;;4973760;28;20340;-78
2023/03/20 04:46:56;;;;;;;1.52;0.77;;;9.70;99.90;;;;;;4972910;28;20031;-77
2023/03/20 04:49:22;;;;;;;1.70;0.90;;;9.70;99.90;;;;;;4972459;28;20049;-76
2023/03/20 04:51:48;;;;;;;0.85;0.70;;;9.60;99.90;;;;;;4973155;28;20039;-76
2023/03/20 04:54:13;;;;;;;1.60;0.50;;;9.60;99.90;;;;;;4973389;28;20081;-76
2023/03/20 04:56:39;;;;;;;1.55;0.50;;;9.60;99.90;;;;;;4972475;28;20126;-76
2023/03/20 04:59:05;;;;;;;1.60;0.40;;;9.70;99.90;;;;;;4967286;28;20098;-77
2023/03/20 05:01:30;;;;;;;2.78;0.60;;;9.60;99.90;;;;;;4969824;28;20011;-76
2023/03/20 05:04:00;;;;;;;0.65;0.55;;;9.60;99.90;;;;;;4971935;28;20435;-75
2023/03/20 05:06:30;;;;;;;1.13;0.50;;;9.70;99.90;;;;;;4973328;28;20026;-76
2023/03/20 05:08:57;;;;;;;0.80;0.52;;;9.70;99.90;;;;;;4972995;28;20019;-76
2023/03/20 05:11:24;;;;;;;0.70;0.50;;;9.60;99.90;;;;;;4972525;28;20033;-76
2023/03/20 05:13:51;;;;;;;1.95;0.70;;;9.70;99.90;;;;;;4973336;28;20484;-77
2023/03/20 05:16:16;;;;;;;1.17;0.57;;;9.70;99.90;;;;;;4973456;28;20058;-76
2023/03/20 05:18:42;;;;;;;1.65;0.80;;;9.70;99.90;;;;;;4969524;28;20542;-78
2023/03/20 05:21:07;;;;;;;2.15;0.70;;;9.70;99.90;;;;;;4971674;28;20054;-77
2023/03/20 05:23:34;;;;;;;1.25;0.60;;;9.70;99.90;;;;;;4974173;28;20559;-79
2023/03/20 05:26:00;;;;;;;1.85;0.80;;;9.80;99.90;;;;;;4974426;28;20027;-77
2023/03/20 05:28:26;;;;;;;3.60;0.73;;;9.80;99.90;;;;;;4973981;28;20077;-77
2023/03/20 05:30:52;;;;;;;0.70;0.47;;;9.80;99.90;;;;;;4972408;28;20030;-76
2023/03/20 05:33:17;;;;;;;1.67;0.80;;;9.80;99.90;;;;;;4973717;28;20074;-77
2023/03/20 05:35:43;;;;;;;1.67;0.68;;;9.80;99.90;;;;;;4974136;28;20026;-77
2023/03/20 05:38:09;;;;;;;0.77;0.45;;;9.80;99.90;;;;;;4973856;28;20074;-77
2023/03/20 05:40:34;;;;;;;1.10;0.55;;;9.80;99.90;;;;;;4974355;28;20023;-77
2023/03/20 05:43:00;;;;;;;0.65;0.52;;;9.90;99.90;;;;;;4972478;28;20027;-77
2023/03/20 05:45:26;;;;;;;0.77;0.60;;;9.80;99.90;;;;;;4972070;28;20027;-76
2023/03/20 05:47:52;;;;;;;0.70;0.47;;;9.90;99.90;;;;;;4973500;28;20149;-76
2023/03/20 05:50:17;;;;;;;1.05;0.60;;;9.90;99.90;;;;;;4972208;28;20050;-76
2023/03/20 05:52:47;;;;;;;0.60;0.50;;;9.90;99.90;;;;;;4972264;28;20031;-76
2023/03/20 05:55:13;;;;;;;1.60;0.40;;;9.90;99.90;;;;;;4972981;28;20026;-77
2023/03/20 05:57:39;;;;;;;0.60;0.47;;;9.80;99.90;;;;;;4971800;28;20037;-77
2023/03/20 06:00:05;;;;;;;0.63;0.60;;;9.90;99.90;;;;;;4970962;28;20023;-77
2023/03/20 06:02:31;;;;;;;2.13;0.50;;;9.90;99.90;;;;;;4971936;28;20241;-76
2023/03/20 06:04:57;;;;;;;1.65;0.68;;;9.90;99.90;;;;;;4971416;28;20084;-76
2023/03/20 06:07:23;;;;;;;1.40;0.55;;;9.90;99.90;;;;;;4973098;28;20081;-77
2023/03/20 06:09:48;;;;;;;0.80;0.50;;;9.90;99.90;;;;;;4973202;28;20369;-79
2023/03/20 06:12:15;;;;;;;2.17;0.63;;;9.90;99.90;;;;;;4966820;28;20030;-79
2023/03/20 06:14:40;;;;;;;1.10;0.68;;;9.90;99.90;;;;;;4978784;28;20023;-78
2023/03/20 06:17:06;;;;;;;1.00;0.50;;;9.90;99.90;;;;;;4978313;28;20502;-77
2023/03/20 06:19:33;;;;;;;2.38;1.13;;;9.90;99.90;;;;;;4979095;28;20110;-78
2023/03/20 06:21:58;;;;;;;2.25;0.80;;;9.90;99.90;;;;;;4978359;28;20106;-77
2023/03/20 06:24:24;;;;;;;1.13;0.77;;;9.90;99.90;;;;;;4977506;28;20424;-77
2023/03/20 06:26:50;;;;;;;1.30;0.70;;;10.00;99.90;;;;;;4977339;28;20492;-78
2023/03/20 06:29:15;;;;;;;1.10;0.73;;;9.90;99.90;;;;;;4979144;28;20027;-78
2023/03/20 06:31:41;;;;;;;1.05;0.55;;;10.00;99.90;;;;;;4973275;28;20031;-77
2023/03/20 06:34:07;;;;;;;2.20;0.68;;;10.00;99.90;;;;;;4975550;28;20109;-78
2023/03/20 06:36:33;;;;;;;2.30;0.93;;;10.00;99.90;;;;;;4973562;28;20113;-78
2023/03/20 06:38:58;;;;;;;2.65;1.38;;;10.00;99.90;;;;;;4976275;28;20033;-77
2023/03/20 06:41:24;;;;;;;0.98;0.68;;;10.00;99.90;;;;;;4986232;28;20034;-78
2023/03/20 06:43:50;;;;;;;3.53;1.08;;;10.00;99.90;;;;;;4976300;28;20368;-78
2023/03/20 06:46:15;;;;;;;1.23;0.63;;;10.00;99.90;;;;;;4977162;28;20054;-75
2023/03/20 06:48:41;;;;;;;2.33;0.60;;;10.00;99.90;;;;;;4975466;28;20030;-77
2023/03/20 06:51:07;;;;;;;1.58;0.65;;;10.00;99.90;;;;;;4977987;28;20018;-78
2023/03/20 06:53:32;;;;;;;1.38;0.60;;;10.00;99.90;;;;;;4978783;28;20109;-78
2023/03/20 06:55:58;;;;;;;0.88;0.60;;;10.00;99.90;;;;;;4993672;28;20058;-78
2023/03/20 06:58:24;;;;;;;1.67;0.90;;;10.00;99.90;;;;;;4978442;28;20054;-77
2023/03/20 07:00:50;;;;;;;1.42;0.68;;;10.00;99.90;;;;;;4993662;28;20078;-78
2023/03/20 07:03:16;;;;;;;4.10;1.13;;;10.10;99.90;;;;;;4993793;28;20035;-78
2023/03/20 07:05:43;;;;;;;1.38;0.80;;;10.10;99.90;;;;;;4987826;28;20038;-78
2023/03/20 07:08:09;;;;;;;1.00;0.70;;;10.10;99.90;;;;;;4967566;28;20114;-78
2023/03/20 07:10:36;;;;;;;3.17;0.95;;;10.20;99.90;;;;;;4974152;28;20145;-77
2023/03/20 07:13:02;;;;;;;1.98;0.50;;;10.20;99.90;;;;;;4977402;28;20027;-78
2023/03/20 07:15:28;;;;;;;1.85;0.80;;;10.30;99.90;;;;;;4973194;28;20097;-78
2023/03/20 07:17:54;;;;;;;1.83;0.68;;;10.30;99.90;;;;;;4975376;28;20599;-78
2023/03/20 07:20:20;;;;;;;1.33;0.50;;;10.40;99.90;;;;;;4975857;28;20058;-78
2023/03/20 07:22:47;;;;;;;2.17;0.73;;;10.40;99.90;;;;;;4976038;28;20405;-77
2023/03/20 07:25:13;;;;;;;1.98;0.60;;;10.40;99.90;;;;;;4972955;28;20033;-77
2023/03/20 07:27:39;;;;;;;0.50;0.32;;;10.50;99.90;;;;;;4974462;28;20037;-75
2023/03/20 07:30:05;;;;;;;1.25;0.52;;;10.60;99.90;;;;;;4976809;28;20426;-76
2023/03/20 07:32:31;;;;;;;3.55;0.43;;;10.70;99.90;;;;;;4972919;28;20045;-76
2023/03/20 07:34:57;;;;;;;0.70;0.40;;;10.70;99.90;;;;;;4969317;28;20122;-76
2023/03/20 07:37:23;;;;;;;0.82;0.50;;;10.70;99.90;;;;;;4975076;28;20144;-76
2023/03/20 07:39:49;;;;;;;0.73;0.40;;;10.80;99.90;;;;;;4975410;28;20036;-77
2023/03/20 07:42:15;;;;;;;3.65;0.47;;;10.80;99.90;;;;;;4975124;28;20361;-77
2023/03/20 07:44:41;;;;;;;0.65;0.32;;;10.90;99.90;;;;;;4972053;28;20499;-77
2023/03/20 07:47:07;;;;;;;0.85;0.35;;;10.90;99.90;;;;;;4974427;28;20118;-77
2023/03/20 07:49:33;;;;;;;2.67;0.43;;;10.90;99.90;;;;;;4974106;28;20030;-76
2023/03/20 07:51:59;;;;;;;1.65;0.50;;;10.90;99.90;;;;;;4976100;28;20468;-77
2023/03/20 07:54:25;;;;;;;2.28;0.55;;;10.90;99.90;;;;;;4967349;28;20154;-77
2023/03/20 07:56:51;;;;;;;0.90;0.57;;;10.90;99.90;;;;;;4971320;28;20027;-77
2023/03/20 07:59:17;;;;;;;0.55;0.30;;;10.90;99.90;;;;;;4973764;28;20082;-77
2023/03/20 08:01:43;;;;;;;1.23;0.82;;;10.90;99.90;;;;;;4972266;28;20107;-76
2023/03/20 08:04:09;;;;;;;2.10;0.47;;;10.90;99.90;;;;;;4974625;28;20054;-76
2023/03/20 08:06:35;;;;;;;1.27;0.60;;;11.00;99.90;;;;;;4980920;28;20023;-77
2023/03/20 08:09:01;;;;;;;1.08;0.60;;;11.00;99.90;;;;;;4974976;28;20034;-77
2023/03/20 08:11:27;;;;;;;1.15;0.65;;;11.10;99.90;;;;;;4975508;28;20373;-77
2023/03/20 08:13:52;;;;;;;0.40;0.40;;;11.00;99.90;;;;;;4973463;28;20027;-76
2023/03/20 08:16:19;;;;;;;2.78;0.70;;;11.10;99.90;;;;;;4976966;28;20110;-77
2023/03/20 08:18:44;;;;;;;0.98;0.50;;;11.10;99.90;;;;;;4963700;28;20046;-75
2023/03/20 08:21:10;;;;;;;4.55;0.70;;;11.00;99.90;;;;;;4974207;28;20022;-75
2023/03/20 08:23:36;;;;;;;1.90;0.80;;;11.10;99.90;;;;;;4974314;28;20384;-75
2023/03/20 08:26:01;;;;;;;1.08;0.60;;;11.20;99.90;;;;;;4974220;28;20487;-75
2023/03/20 08:28:27;;;;;;;5.55;0.77;;;11.10;99.90;;;;;;4967587;28;20027;-75
2023/03/20 08:30:52;;;;;;;2.35;0.60;;;11.20;99.90;;;;;;4973663;28;20035;-76
2023/03/20 08:33:19;;;;;;;1.52;0.73;;;11.20;99.90;;;;;;4973457;28;20110;-78
2023/03/20 08:35:55;;;;;;;1.25;0.73;;;11.30;99.90;;;;;;4972872;28;20396;-76
2023/03/20 08:38:21;;;;;;;1.10;0.65;;;11.30;99.90;;;;;;4974243;28;20183;-78
2023/03/20 08:40:46;;;;;;;2.72;0.80;;;11.30;99.90;;;;;;4972973;28;20153;-76
2023/03/20 08:43:12;;;;;;;0.60;0.57;;;11.30;99.90;;;;;;4972977;28;20082;-76
2023/03/20 08:45:38;;;;;;;2.17;0.70;;;11.20;99.90;;;;;;4982970;28;20598;-75
2023/03/20 08:48:03;;;;;;;5.25;0.77;;;11.20;99.90;;;;;;4968924;28;20127;-76
2023/03/20 08:50:29;;;;;;;1.98;0.60;;;11.20;99.90;;;;;;4964040;28;20031;-76
2023/03/20 08:52:55;;;;;;;2.00;0.80;;;11.30;99.90;;;;;;4972403;28;20041;-76
2023/03/20 08:55:20;;;;;;;1.27;0.60;;;11.30;99.90;;;;;;4977692;28;20031;-76
2023/03/20 08:57:46;;;;;;;2.10;0.65;;;11.40;99.90;;;;;;4973878;28;20484;-74
2023/03/20 09:00:14;;;;;;;1.55;0.50;;;11.40;99.90;;;;;;4973857;28;20022;-78
2023/03/20 09:02:43;;;;;;;1.10;0.80;;;11.50;99.90;;;;;;4972748;28;20502;-76
2023/03/20 09:05:09;;;;;;;1.48;0.80;;;11.50;99.90;;;;;;4970771;28;20507;-78
2023/03/20 09:07:35;;;;;;;1.05;0.73;;;11.60;99.90;;;;;;4973769;28;20022;-76
2023/03/20 09:10:01;;;;;;;0.90;0.60;;;11.60;99.90;;;;;;4968652;28;20027;-75
2023/03/20 09:12:27;;;;;;;2.33;0.70;;;11.60;99.90;;;;;;4977870;28;20058;-76
2023/03/20 09:14:53;;;;;;;1.67;0.68;;;11.70;99.90;;;;;;4976596;28;20031;-78
2023/03/20 09:17:18;;;;;;;1.27;0.60;;;11.80;99.90;;;;;;4977177;28;20026;-78
2023/03/20 09:19:44;;;;;;;1.13;0.65;;;11.80;99.90;;;;;;4965361;28;20047;-78
2023/03/20 09:22:14;;;;;;;1.35;0.57;;;11.90;99.90;;;;;;4971267;28;20153;-77
2023/03/20 09:24:40;;;;;;;2.35;0.60;;;12.00;99.90;;;;;;4976989;28;20043;-77
2023/03/20 09:27:05;;;;;;;1.10;0.60;;;12.00;99.90;;;;;;4957599;28;20026;-77
2023/03/20 09:29:31;;;;;;;2.35;0.52;;;12.10;99.90;;;;;;4956889;28;20024;-78
2023/03/20 09:31:57;;;;;;;1.35;0.60;;;12.20;99.90;;;;;;4975717;28;20353;-77
2023/03/20 09:34:23;;;;;;;1.25;0.60;;;12.30;99.90;;;;;;4973245;28;20074;-78
2023/03/20 09:36:49;;;;;;;0.70;0.50;;;12.40;99.90;;;;;;4969221;28;20110;-77
2023/03/20 09:39:17;;;;;;;2.08;0.77;;;12.50;99.90;;;;;;4955740;28;20027;-77
2023/03/20 09:41:47;;;;;;;1.25;0.60;;;12.60;99.90;;;;;;4970863;28;20145;-77
2023/03/20 09:44:44;;;;;;;2.30;0.80;;;12.70;99.90;;;;;;4955527;28;20028;-78
2023/03/20 09:47:16;;;;;;;1.10;0.50;;;12.90;99.90;;;;;;4956496;28;20027;-77
2023/03/20 09:50:08;;;;;;;0.50;0.40;;;12.90;99.90;;;;;;4954573;28;20125;-76
2023/03/20 09:52:53;;;;;;;1.88;0.50;;;12.90;99.90;;;;;;4969798;23;20047;-74
2023/03/20 09:55:39;;;;;;;0.70;0.40;;;12.90;99.90;;;;;;4949011;28;20083;-74
2023/03/20 09:58:26;;;;;;;1.63;0.52;;;13.10;99.90;;;;;;4951207;28;20387;-74
2023/03/20 10:00:56;;;;;;;1.85;0.60;;;13.00;99.90;;;;;;4949816;28;20015;-75
2023/03/20 10:03:35;;;;;;;0.80;0.55;;;13.10;99.90;;;;;;4931478;29;20027;-74
2023/03/20 10:06:10;;;;;;;0.77;0.30;;;13.10;99.90;;;;;;4933723;29;20448;-74
2023/03/20 10:08:37;;;;;;;0.40;0.30;;;13.10;99.90;;;;;;4934708;29;20107;-74
2023/03/20 10:11:17;;;;;;;1.10;0.60;;;13.10;99.90;;;;;;4930672;29;20020;-74
2023/03/20 10:14:06;;;;;;;2.63;0.50;;;13.20;99.90;;;;;;4944188;28;20307;-74
2023/03/20 10:16:46;;;;;;;1.13;0.50;;;13.10;99.90;;;;;;4935439;29;20035;-75
2023/03/20 10:19:21;;;;;;;0.90;0.60;;;13.10;99.90;;;;;;4931615;29;20019;-74
2023/03/20 10:22:01;;;;;;;2.22;0.40;;;13.10;99.90;;;;;;4931066;29;20040;-75
2023/03/20 10:24:45;;;;;;;0.50;0.30;;;13.00;99.90;;;;;;4933429;29;20032;-74
2023/03/20 10:27:23;;;;;;;0.50;0.40;;;13.00;99.90;;;;;;4936022;29;20054;-74
2023/03/20 10:30:20;;;;;;;1.52;0.40;;;12.90;99.90;;;;;;4928014;29;20039;-75
2023/03/20 10:33:00;;;;;;;1.45;0.68;;;12.90;99.90;;;;;;4935886;29;20040;-73
2023/03/20 10:35:44;;;;;;;1.10;0.55;;;12.80;99.90;;;;;;4933502;29;20031;-74
2023/03/20 10:38:40;;;;;;;1.08;0.60;;;12.70;99.90;;;;;;4930387;29;20036;-74
2023/03/20 10:41:15;;;;;;;0.95;0.52;;;12.60;99.90;;;;;;4931002;29;20067;-74
2023/03/20 10:43:42;;;;;;;1.02;0.68;;;12.60;99.90;;;;;;4931293;29;20123;-73
2023/03/20 10:46:13;;;;;;;1.77;0.70;;;12.60;99.90;;;;;;4928259;29;20122;-74
2023/03/20 10:48:57;;;;;;;0.63;0.40;;;12.50;99.90;;;;;;4930695;29;20492;-74
2023/03/20 10:51:39;;;;;;;1.88;0.70;;;12.50;99.90;;;;;;4931050;29;20035;-74
2023/03/20 10:54:12;;;;;;;1.00;0.60;;;12.40;99.90;;;;;;4935260;29;20074;-73
2023/03/20 10:56:45;;;;;;;2.47;0.50;;;12.40;99.90;;;;;;4935940;29;20190;-74
2023/03/20 10:59:33;;;;;;;1.25;0.65;;;12.30;99.90;;;;;;4935418;29;20384;-74
2023/03/20 11:01:59;;;;;;;1.80;0.73;;;12.30;99.90;;;;;;4927214;29;20099;-73
2023/03/20 11:04:25;;;;;;;1.90;0.60;;;12.30;99.90;;;;;;4934832;29;20098;-74
2023/03/20 11:07:00;;;;;;;1.45;0.63;;;12.30;99.90;;;;;;4934927;29;20027;-75
2023/03/20 11:09:28;;;;;;;2.28;0.50;;;12.40;99.90;;;;;;4936630;29;20435;-74
2023/03/20 11:11:57;;;;;;;0.38;0.35;;;12.40;99.90;;;;;;4939304;28;20384;-74
2023/03/20 11:14:26;;;;;;;1.38;0.75;;;12.50;99.90;;;;;;4934457;29;20036;-73
2023/03/20 11:16:54;;;;;;;1.13;0.50;;;12.50;99.90;;;;;;4940517;28;20095;-74
2023/03/20 11:19:21;;;;;;;1.67;0.70;;;12.60;99.90;;;;;;4936312;29;20091;-74
2023/03/20 11:21:59;;;;;;;2.05;0.70;;;12.70;99.90;;;;;;4935318;29;20160;-74
2023/03/20 11:24:44;;;;;;;1.33;0.65;;;12.80;99.70;;;;;;4932812;29;20024;-74
2023/03/20 11:27:14;;;;;;;1.88;0.80;;;12.90;99.90;;;;;;4934088;29;20038;-74
2023/03/20 11:29:41;;;;;;;3.55;0.93;;;13.00;99.90;;;;;;4936647;29;20454;-74
2023/03/20 11:32:21;;;;;;;1.70;1.02;;;13.20;99.90;;;;;;4933705;29;20027;-74
2023/03/20 11:34:46;;;;;;;0.95;0.60;;;13.40;99.70;;;;;;4939719;29;20039;-74
2023/03/20 11:37:42;;;;;;;1.83;0.80;;;13.50;99.60;;;;;;4928034;29;20087;-74
2023/03/20 11:40:11;;;;;;;1.65;0.60;;;13.60;98.20;;;;;;4933974;29;20035;-75
2023/03/20 11:42:36;;;;;;;1.00;0.70;;;13.80;97.90;;;;;;4934159;29;20031;-76
2023/03/20 11:45:15;;;;;;;0.60;0.50;;;13.80;97.60;;;;;;4933860;29;20134;-75
2023/03/20 11:47:42;;;;;;;0.98;0.57;;;13.90;96.60;;;;;;4935834;29;20059;-74
2023/03/20 11:50:45;;;;;;;1.98;0.85;;;13.90;96.30;;;;;;4937961;29;20028;-74
2023/03/20 11:53:31;;;;;;;1.73;1.00;;;14.00;96.60;;;;;;4931178;29;20134;-74
2023/03/20 11:56:02;;;;;;;1.30;0.60;;;14.00;96.50;;;;;;4943464;29;20560;-73
2023/03/20 11:58:28;;;;;;;3.45;0.75;;;14.10;96.20;;;;;;4944190;29;20211;-74
2023/03/20 12:00:55;;;;;;;1.27;0.80;;;14.10;95.90;;;;;;4941290;29;20035;-75
2023/03/20 12:03:40;;;;;;;3.42;0.80;;;14.10;95.80;;;;;;4953832;28;20032;-74
2023/03/20 12:06:36;;;;;;;1.02;0.70;;;14.10;96.10;;;;;;4944446;29;20051;-75
2023/03/20 12:09:11;;;;;;;2.28;0.77;;;14.10;96.10;;;;;;4938399;29;20036;-74
2023/03/20 12:11:40;;;;;;;1.20;0.73;;;14.20;96.00;;;;;;4942412;29;20047;-74
2023/03/20 12:14:22;;;;;;;1.10;0.70;;;14.20;95.70;;;;;;4940975;29;20340;-74
2023/03/20 12:16:52;;;;;;;1.08;0.50;;;14.10;95.30;;;;;;4938425;29;20043;-74
2023/03/20 12:19:28;;;;;;;1.95;0.80;;;14.10;95.60;;;;;;4955904;28;20034;-74
2023/03/20 12:22:20;;;;;;;2.40;1.27;;;14.10;95.70;;;;;;4940332;29;20075;-74
2023/03/20 12:25:01;;;;;;;4.45;1.65;;;14.10;95.90;;;;;;4955019;28;20734;-75
2023/03/20 12:27:44;;;;;;;3.95;0.85;;;14.10;95.70;;;;;;4939174;29;20035;-74
2023/03/20 12:30:15;;;;;;;1.10;0.65;;;14.10;95.80;;;;;;4941196;29;20034;-74
2023/03/20 12:33:01;;;;;;;2.47;0.98;;;14.10;96.00;;;;;;4945000;29;20067;-74
2023/03/20 12:35:36;;;;;;;2.08;0.80;;;14.10;96.00;;;;;;4949497;29;20035;-74
2023/03/20 12:38:13;;;;;;;1.20;0.80;;;14.20;96.10;;;;;;4947346;29;20058;-75
2023/03/20 12:40:53;;;;;;;1.05;0.70;;;14.20;96.10;;;;;;4946699;29;20095;-74
2023/03/20 12:43:28;;;;;;;2.50;1.00;;;14.20;95.60;;;;;;4941145;29;20047;-74
2023/03/20 12:46:24;;;;;;;1.70;0.80;;;14.20;95.40;;;;;;4939343;29;20020;-73
2023/03/20 12:48:56;;;;;;;3.08;0.77;;;14.30;95.50;;;;;;4938992;29;20086;-75
2023/03/20 12:51:37;;;;;;;1.58;1.08;;;14.30;95.40;;;;;;4950944;28;20028;-74
2023/03/20 12:54:34;;;;;;;1.40;0.70;;;14.30;95.40;;;;;;4938614;29;20491;-74
2023/03/20 12:57:06;;;;;;;2.72;0.90;;;14.30;95.30;;;;;;4938884;29;20046;-74
2023/03/20 12:59:58;;;;;;;2.20;0.98;;;14.20;95.40;;;;;;4944681;29;20032;-74
2023/03/20 13:02:29;;;;;;;3.47;0.90;;;14.20;95.50;;;;;;4944312;29;20054;-74
2023/03/20 13:05:15;;;;;;;1.92;0.90;;;14.20;95.90;;;;;;4941867;29;20034;-73
2023/03/20 13:07:41;;;;;;;1.95;0.90;;;14.20;95.80;;;;;;4942542;29;20068;-75
2023/03/20 13:10:19;;;;;;;0.80;0.60;;;14.30;95.90;;;;;;4946197;29;20031;-73